sensor_id;sensor_type;location;lat;lon;timestamp;temperature;humidity
70726;DHT22;58304;53.104;6.022;2023-04-24T00:01:48;11.10;99.90
70726;DHT22;58304;53.104;6.022;2023-04-24T00:04:14;11.10;99.90
70726;DHT22;58304;53.104;6.022;2023-04-24T00:06:42;11.20;99.90
70726;DHT22;58304;53.104;6.022;2023-04-24T00:09:09;11.10;99.90
70726;DHT22;58304;53.104;6.022;2023-04-24T00:11:36;11.10;99.90
70726;DHT22;58304;53.104;6.022;2023-04-24T00:14:02;11.10;99.90
70726;DHT22;58304;53.104;6.022;2023-04-24T00:16:27;11.10;99.90
70726;DHT22;58304;53.104;6.022;2023-04-24T00:18:54;11.00;99.90
70726;DHT22;58304;53.104;6.022;2023-04-24T00:21:20;10.90;99.90
70726;DHT22;58304;53.104;6.022;2023-04-24T00:23:47;10.90;99.90
70726;DHT22;58304;53.104;6.022;2023-04-24T00:26:13;10.90;99.90
70726;DHT22;58304;53.104;6.022;2023-04-24T00:28:38;10.90;99.90
70726;DHT22;58304;53.104;6.022;2023-04-24T00:31:04;10.80;99.90
70726;DHT22;58304;53.104;6.022;2023-04-24T00:33:30;10.80;99.90
70726;DHT22;58304;53.104;6.022;2023-04-24T00:35:55;10.70;99.90
70726;DHT22;58304;53.104;6.022;2023-04-24T00:38:21;10.70;99.90
70726;DHT22;58304;53.104;6.022;2023-04-24T00:40:48;10.80;99.90
70726;DHT22;58304;53.104;6.022;2023-04-24T00:43:15;10.70;99.90
70726;DHT22;58304;53.104;6.022;2023-04-24T00:45:41;10.70;99.90
70726;DHT22;58304;53.104;6.022;2023-04-24T00:48:07;10.70;99.90
70726;DHT22;58304;53.104;6.022;2023-04-24T00:50:33;10.70;99.90
70726;DHT22;58304;53.104;6.022;2023-04-24T00:53:00;10.70;99.90
70726;DHT22;58304;53.104;6.022;2023-04-24T00:55:28;10.60;99.90
70726;DHT22;58304;53.104;6.022;2023-04-24T00:57:54;10.70;99.90
70726;DHT22;58304;53.104;6.022;2023-04-24T01:00:20;10.70;99.90
70726;DHT22;58304;53.104;6.022;2023-04-24T01:02:46;10.70;99.90
70726;DHT22;58304;53.104;6.022;2023-04-24T01:05:13;10.70;99.90
70726;DHT22;58304;53.104;6.022;2023-04-24T01:07:41;10.70;99.90
70726;DHT22;58304;53.104;6.022;2023-04-24T01:10:09;10.70;99.90
70726;DHT22;58304;53.104;6.022;2023-04-24T01:12:35;10.70;99.90
70726;DHT22;58304;53.104;6.022;2023-04-24T01:15:03;10.70;99.90
70726;DHT22;58304;53.104;6.022;2023-04-24T01:17:29;10.60;99.90
70726;DHT22;58304;53.104;6.022;2023-04-24T01:19:55;10.60;99.90
70726;DHT22;58304;53.104;6.022;2023-04-24T01:22:22;10.70;99.90
70726;DHT22;58304;53.104;6.022;2023-04-24T01:24:48;10.60;99.90
70726;DHT22;58304;53.104;6.022;2023-04-24T01:27:13;10.60;99.90
70726;DHT22;58304;53.104;6.022;2023-04-24T01:29:40;10.70;99.90
70726;DHT22;58304;53.104;6.022;2023-04-24T01:32:06;10.60;99.90
70726;DHT22;58304;53.104;6.022;2023-04-24T01:34:32;10.60;99.90
70726;DHT22;58304;53.104;6.022;2023-04-24T01:36:58;10.50;99.90
70726;DHT22;58304;53.104;6.022;2023-04-24T01:39:23;10.50;99.90
70726;DHT22;58304;53.104;6.022;2023-04-24T01:41:51;10.50;99.90
70726;DHT22;58304;53.104;6.022;2023-04-24T01:44:18;10.60;99.90
70726;DHT22;58304;53.104;6.022;2023-04-24T01:46:44;10.60;99.90
70726;DHT22;58304;53.104;6.022;2023-04-24T01:49:10;10.60;99.90
70726;DHT22;58304;53.104;6.022;2023-04-24T01:51:36;10.60;99.90
70726;DHT22;58304;53.104;6.022;2023-04-24T01:54:01;10.60;99.90
70726;DHT22;58304;53.104;6.022;2023-04-24T01:56:29;10.60;99.90
70726;DHT22;58304;53.104;6.022;2023-04-24T01:58:56;10.60;99.90
70726;DHT22;58304;53.104;6.022;2023-04-24T02:01:23;10.60;99.90
70726;DHT22;58304;53.104;6.022;2023-04-24T02:03:49;10.60;99.90
70726;DHT22;58304;53.104;6.022;2023-04-24T02:06:15;10.60;99.90
70726;DHT22;58304;53.104;6.022;2023-04-24T02:08:40;10.60;99.90
70726;DHT22;58304;53.104;6.022;2023-04-24T02:11:06;10.50;99.90
70726;DHT22;58304;53.104;6.022;2023-04-24T02:13:32;10.60;99.90
70726;DHT22;58304;53.104;6.022;2023-04-24T02:15:58;10.60;99.90
70726;DHT22;58304;53.104;6.022;2023-04-24T02:18:24;10.60;99.90
70726;DHT22;58304;53.104;6.022;2023-04-24T02:20:50;10.60;99.90
70726;DHT22;58304;53.104;6.022;2023-04-24T02:23:15;10.60;99.90
70726;DHT22;58304;53.104;6.022;2023-04-24T02:25:41;10.60;99.90
70726;DHT22;58304;53.104;6.022;2023-04-24T02:28:06;10.60;99.90
70726;DHT22;58304;53.104;6.022;2023-04-24T02:30:32;10.60;99.90
70726;DHT22;58304;53.104;6.022;2023-04-24T02:32:57;10.60;99.90
70726;DHT22;58304;53.104;6.022;2023-04-24T02:35:23;10.60;99.90
70726;DHT22;58304;53.104;6.022;2023-04-24T02:37:49;10.60;99.90
70726;DHT22;58304;53.104;6.022;2023-04-24T02:40:14;10.60;99.90
70726;DHT22;58304;53.104;6.022;2023-04-24T02:42:40;10.60;99.90
70726;DHT22;58304;53.104;6.022;2023-04-24T02:45:06;10.60;99.90
70726;DHT22;58304;53.104;6.022;2023-04-24T02:47:31;10.70;99.90
70726;DHT22;58304;53.104;6.022;2023-04-24T02:49:57;10.70;99.90
70726;DHT22;58304;53.104;6.022;2023-04-24T02:52:23;10.70;99.90
70726;DHT22;58304;53.104;6.022;2023-04-24T02:54:48;10.70;99.90
70726;DHT22;58304;53.104;6.022;2023-04-24T02:57:14;10.70;99.90
70726;DHT22;58304;53.104;6.022;2023-04-24T02:59:40;10.70;99.90
70726;DHT22;58304;53.104;6.022;2023-04-24T03:02:06;10.80;99.90
70726;DHT22;58304;53.104;6.022;2023-04-24T03:04:31;10.80;99.90
70726;DHT22;58304;53.104;6.022;2023-04-24T03:06:57;10.80;99.90
70726;DHT22;58304;53.104;6.022;2023-04-24T03:09:23;10.80;99.90
70726;DHT22;58304;53.104;6.022;2023-04-24T03:11:49;10.80;99.90
70726;DHT22;58304;53.104;6.022;2023-04-24T03:14:16;10.80;99.90
70726;DHT22;58304;53.104;6.022;2023-04-24T03:16:41;10.80;99.90
70726;DHT22;58304;53.104;6.022;2023-04-24T03:19:07;10.80;99.90
70726;DHT22;58304;53.104;6.022;2023-04-24T03:21:33;10.80;99.90
70726;DHT22;58304;53.104;6.022;2023-04-24T03:23:58;10.90;99.90
70726;DHT22;58304;53.104;6.022;2023-04-24T03:26:24;10.80;99.90
70726;DHT22;58304;53.104;6.022;2023-04-24T03:28:56;10.70;99.90
70726;DHT22;58304;53.104;6.022;2023-04-24T03:31:24;10.70;99.90
70726;DHT22;58304;53.104;6.022;2023-04-24T03:33:56;10.60;99.90
70726;DHT22;58304;53.104;6.022;2023-04-24T03:36:21;10.60;99.90
70726;DHT22;58304;53.104;6.022;2023-04-24T03:38:47;10.50;99.90
70726;DHT22;58304;53.104;6.022;2023-04-24T03:41:13;10.50;99.90
70726;DHT22;58304;53.104;6.022;2023-04-24T03:43:39;10.40;99.90
70726;DHT22;58304;53.104;6.022;2023-04-24T03:46:04;10.30;99.90
70726;DHT22;58304;53.104;6.022;2023-04-24T03:48:30;10.30;99.90
70726;DHT22;58304;53.104;6.022;2023-04-24T03:50:55;10.30;99.90
70726;DHT22;58304;53.104;6.022;2023-04-24T03:53:21;10.30;99.90
70726;DHT22;58304;53.104;6.022;2023-04-24T03:55:47;10.20;99.90
70726;DHT22;58304;53.104;6.022;2023-04-24T03:58:12;10.20;99.90
70726;DHT22;58304;53.104;6.022;2023-04-24T04:00:39;10.20;99.90
70726;DHT22;58304;53.104;6.022;2023-04-24T04:03:06;10.20;99.90
70726;DHT22;58304;53.104;6.022;2023-04-24T04:05:31;10.20;99.90
70726;DHT22;58304;53.104;6.022;2023-04-24T04:07:57;10.20;99.90
70726;DHT22;58304;53.104;6.022;2023-04-24T04:10:22;10.20;99.90
70726;DHT22;58304;53.104;6.022;2023-04-24T04:12:48;10.10;99.90
70726;DHT22;58304;53.104;6.022;2023-04-24T04:15:13;10.10;99.90
70726;DHT22;58304;53.104;6.022;2023-04-24T04:17:39;10.10;99.90
70726;DHT22;58304;53.104;6.022;2023-04-24T04:20:05;10.10;99.90
70726;DHT22;58304;53.104;6.022;2023-04-24T04:22:35;10.10;99.90
70726;DHT22;58304;53.104;6.022;2023-04-24T04:25:01;10.10;99.90
70726;DHT22;58304;53.104;6.022;2023-04-24T04:27:27;10.10;99.90
70726;DHT22;58304;53.104;6.022;2023-04-24T04:29:53;10.10;99.90
70726;DHT22;58304;53.104;6.022;2023-04-24T04:32:21;10.10;99.90
70726;DHT22;58304;53.104;6.022;2023-04-24T04:34:47;10.10;99.90
70726;DHT22;58304;53.104;6.022;2023-04-24T04:37:14;10.10;99.90
70726;DHT22;58304;53.104;6.022;2023-04-24T04:39:40;10.10;99.90
70726;DHT22;58304;53.104;6.022;2023-04-24T04:42:06;10.10;99.90
70726;DHT22;58304;53.104;6.022;2023-04-24T04:44:32;10.00;99.90
70726;DHT22;58304;53.104;6.022;2023-04-24T04:46:58;10.10;99.90
70726;DHT22;58304;53.104;6.022;2023-04-24T04:49:25;10.00;99.90
70726;DHT22;58304;53.104;6.022;2023-04-24T04:51:53;10.10;99.90
70726;DHT22;58304;53.104;6.022;2023-04-24T04:54:19;10.00;99.90
70726;DHT22;58304;53.104;6.022;2023-04-24T04:56:44;10.00;99.90
70726;DHT22;58304;53.104;6.022;2023-04-24T04:59:10;10.10;99.90
70726;DHT22;58304;53.104;6.022;2023-04-24T05:01:36;10.00;99.90
70726;DHT22;58304;53.104;6.022;2023-04-24T05:04:02;10.10;99.90
70726;DHT22;58304;53.104;6.022;2023-04-24T05:06:27;10.00;99.90
70726;DHT22;58304;53.104;6.022;2023-04-24T05:08:53;10.00;99.90
70726;DHT22;58304;53.104;6.022;2023-04-24T05:11:22;10.10;99.90
70726;DHT22;58304;53.104;6.022;2023-04-24T05:13:48;10.00;99.90
70726;DHT22;58304;53.104;6.022;2023-04-24T05:16:14;10.00;99.90
70726;DHT22;58304;53.104;6.022;2023-04-24T05:18:39;10.00;99.90
70726;DHT22;58304;53.104;6.022;2023-04-24T05:21:05;10.00;99.90
70726;DHT22;58304;53.104;6.022;2023-04-24T05:23:31;10.00;99.90
70726;DHT22;58304;53.104;6.022;2023-04-24T05:25:56;10.00;99.90
70726;DHT22;58304;53.104;6.022;2023-04-24T05:28:22;10.00;99.90
70726;DHT22;58304;53.104;6.022;2023-04-24T05:30:48;10.00;99.90
70726;DHT22;58304;53.104;6.022;2023-04-24T05:33:13;10.00;99.90
70726;DHT22;58304;53.104;6.022;2023-04-24T05:35:40;10.00;99.90
70726;DHT22;58304;53.104;6.022;2023-04-24T05:38:11;10.00;99.90
70726;DHT22;58304;53.104;6.022;2023-04-24T05:40:37;10.00;99.90
70726;DHT22;58304;53.104;6.022;2023-04-24T05:43:02;10.00;99.90
70726;DHT22;58304;53.104;6.022;2023-04-24T05:45:28;9.90;99.90
70726;DHT22;58304;53.104;6.022;2023-04-24T05:47:53;10.00;99.90
70726;DHT22;58304;53.104;6.022;2023-04-24T05:50:19;9.90;99.90
70726;DHT22;58304;53.104;6.022;2023-04-24T05:52:45;9.90;99.90
70726;DHT22;58304;53.104;6.022;2023-04-24T05:55:10;10.00;99.90
70726;DHT22;58304;53.104;6.022;2023-04-24T05:57:36;10.00;99.90
70726;DHT22;58304;53.104;6.022;2023-04-24T06:00:02;9.90;99.90
70726;DHT22;58304;53.104;6.022;2023-04-24T06:02:29;9.90;99.90
70726;DHT22;58304;53.104;6.022;2023-04-24T06:04:58;9.90;99.90
70726;DHT22;58304;53.104;6.022;2023-04-24T06:07:25;10.00;99.90
70726;DHT22;58304;53.104;6.022;2023-04-24T06:09:51;10.00;99.90
70726;DHT22;58304;53.104;6.022;2023-04-24T06:12:17;10.00;99.90
70726;DHT22;58304;53.104;6.022;2023-04-24T06:14:43;10.00;99.90
70726;DHT22;58304;53.104;6.022;2023-04-24T06:17:08;10.00;99.90
70726;DHT22;58304;53.104;6.022;2023-04-24T06:19:34;10.00;99.90
70726;DHT22;58304;53.104;6.022;2023-04-24T06:22:00;10.00;99.90
70726;DHT22;58304;53.104;6.022;2023-04-24T06:24:28;9.90;99.90
70726;DHT22;58304;53.104;6.022;2023-04-24T06:26:54;9.90;99.90
70726;DHT22;58304;53.104;6.022;2023-04-24T06:29:20;9.90;99.90
70726;DHT22;58304;53.104;6.022;2023-04-24T06:31:45;9.90;99.90
70726;DHT22;58304;53.104;6.022;2023-04-24T06:34:11;9.90;99.90
70726;DHT22;58304;53.104;6.022;2023-04-24T06:36:37;9.90;99.90
70726;DHT22;58304;53.104;6.022;2023-04-24T06:39:02;9.90;99.90
70726;DHT22;58304;53.104;6.022;2023-04-24T06:41:28;9.80;99.90
70726;DHT22;58304;53.104;6.022;2023-04-24T06:43:54;9.80;99.90
70726;DHT22;58304;53.104;6.022;2023-04-24T06:46:20;9.80;99.90
70726;DHT22;58304;53.104;6.022;2023-04-24T06:48:49;9.80;99.90
70726;DHT22;58304;53.104;6.022;2023-04-24T06:51:15;9.80;99.90
70726;DHT22;58304;53.104;6.022;2023-04-24T06:53:40;9.80;99.90
70726;DHT22;58304;53.104;6.022;2023-04-24T06:56:06;9.70;99.90
70726;DHT22;58304;53.104;6.022;2023-04-24T06:58:32;9.70;99.90
70726;DHT22;58304;53.104;6.022;2023-04-24T07:00:57;9.70;99.90
70726;DHT22;58304;53.104;6.022;2023-04-24T07:03:23;9.60;99.90
70726;DHT22;58304;53.104;6.022;2023-04-24T07:05:48;9.70;99.90
70726;DHT22;58304;53.104;6.022;2023-04-24T07:08:14;9.60;99.90
70726;DHT22;58304;53.104;6.022;2023-04-24T07:10:42;9.50;99.90
70726;DHT22;58304;53.104;6.022;2023-04-24T07:13:08;9.50;99.90
70726;DHT22;58304;53.104;6.022;2023-04-24T07:15:34;9.50;99.90
70726;DHT22;58304;53.104;6.022;2023-04-24T07:18:00;9.50;99.90
70726;DHT22;58304;53.104;6.022;2023-04-24T07:20:26;9.50;99.90
70726;DHT22;58304;53.104;6.022;2023-04-24T07:22:52;9.40;99.90
70726;DHT22;58304;53.104;6.022;2023-04-24T07:25:19;9.50;99.90
70726;DHT22;58304;53.104;6.022;2023-04-24T07:27:45;9.40;99.90
70726;DHT22;58304;53.104;6.022;2023-04-24T07:30:11;9.40;99.90
70726;DHT22;58304;53.104;6.022;2023-04-24T07:32:36;9.40;99.90
70726;DHT22;58304;53.104;6.022;2023-04-24T07:35:02;9.50;99.90
70726;DHT22;58304;53.104;6.022;2023-04-24T07:37:28;9.50;99.90
70726;DHT22;58304;53.104;6.022;2023-04-24T07:39:54;9.50;99.90
70726;DHT22;58304;53.104;6.022;2023-04-24T07:42:20;9.60;99.90
70726;DHT22;58304;53.104;6.022;2023-04-24T07:44:45;9.50;99.90
70726;DHT22;58304;53.104;6.022;2023-04-24T07:47:13;9.60;99.90
70726;DHT22;58304;53.104;6.022;2023-04-24T07:49:41;9.60;99.90
70726;DHT22;58304;53.104;6.022;2023-04-24T07:52:07;9.50;99.90
70726;DHT22;58304;53.104;6.022;2023-04-24T07:54:32;9.50;99.90
70726;DHT22;58304;53.104;6.022;2023-04-24T07:56:58;9.40;99.90
70726;DHT22;58304;53.104;6.022;2023-04-24T07:59:24;9.40;99.90
70726;DHT22;58304;53.104;6.022;2023-04-24T08:01:49;9.40;99.90
70726;DHT22;58304;53.104;6.022;2023-04-24T08:04:15;9.40;99.90
70726;DHT22;58304;53.104;6.022;2023-04-24T08:06:40;9.30;99.90
70726;DHT22;58304;53.104;6.022;2023-04-24T08:09:06;9.30;99.90
70726;DHT22;58304;53.104;6.022;2023-04-24T08:11:32;9.40;99.90
70726;DHT22;58304;53.104;6.022;2023-04-24T08:13:58;9.40;99.90
70726;DHT22;58304;53.104;6.022;2023-04-24T08:16:23;9.40;99.90
70726;DHT22;58304;53.104;6.022;2023-04-24T08:18:49;9.50;99.90
70726;DHT22;58304;53.104;6.022;2023-04-24T08:21:15;9.60;99.90
70726;DHT22;58304;53.104;6.022;2023-04-24T08:23:46;9.60;99.90
70726;DHT22;58304;53.104;6.022;2023-04-24T08:26:12;9.60;99.90
70726;DHT22;58304;53.104;6.022;2023-04-24T08:28:38;9.60;99.90
70726;DHT22;58304;53.104;6.022;2023-04-24T08:31:04;9.70;99.90
70726;DHT22;58304;53.104;6.022;2023-04-24T08:33:30;9.70;99.90
70726;DHT22;58304;53.104;6.022;2023-04-24T08:36:01;9.80;99.90
70726;DHT22;58304;53.104;6.022;2023-04-24T08:38:27;9.80;99.90
70726;DHT22;58304;53.104;6.022;2023-04-24T08:40:52;9.80;99.90
70726;DHT22;58304;53.104;6.022;2023-04-24T08:43:21;9.80;99.90
70726;DHT22;58304;53.104;6.022;2023-04-24T08:45:47;9.90;99.90
70726;DHT22;58304;53.104;6.022;2023-04-24T08:48:13;10.00;99.90
70726;DHT22;58304;53.104;6.022;2023-04-24T08:50:40;9.90;99.90
70726;DHT22;58304;53.104;6.022;2023-04-24T08:53:08;9.90;99.90
70726;DHT22;58304;53.104;6.022;2023-04-24T08:55:34;9.80;99.90
70726;DHT22;58304;53.104;6.022;2023-04-24T08:58:01;9.80;99.90
70726;DHT22;58304;53.104;6.022;2023-04-24T09:00:28;9.70;99.90
70726;DHT22;58304;53.104;6.022;2023-04-24T09:02:54;9.70;99.90
70726;DHT22;58304;53.104;6.022;2023-04-24T09:05:21;9.70;99.90
70726;DHT22;58304;53.104;6.022;2023-04-24T09:07:54;9.80;99.90
70726;DHT22;58304;53.104;6.022;2023-04-24T09:10:24;9.80;99.90
70726;DHT22;58304;53.104;6.022;2023-04-24T09:12:51;9.90;99.90
70726;DHT22;58304;53.104;6.022;2023-04-24T09:15:19;9.90;99.90
70726;DHT22;58304;53.104;6.022;2023-04-24T09:17:46;10.00;99.90
70726;DHT22;58304;53.104;6.022;2023-04-24T09:20:12;10.00;99.90
70726;DHT22;58304;53.104;6.022;2023-04-24T09:22:38;10.10;99.90
70726;DHT22;58304;53.104;6.022;2023-04-24T09:25:05;10.10;99.90
70726;DHT22;58304;53.104;6.022;2023-04-24T09:27:35;10.30;99.90
70726;DHT22;58304;53.104;6.022;2023-04-24T09:30:01;10.40;99.90
70726;DHT22;58304;53.104;6.022;2023-04-24T09:32:27;10.60;99.90
70726;DHT22;58304;53.104;6.022;2023-04-24T09:37:38;10.90;99.90
70726;DHT22;58304;53.104;6.022;2023-04-24T09:42:34;10.90;99.90
70726;DHT22;58304;53.104;6.022;2023-04-24T09:44:59;10.80;99.90
70726;DHT22;58304;53.104;6.022;2023-04-24T09:47:25;10.70;99.90
70726;DHT22;58304;53.104;6.022;2023-04-24T09:49:51;10.70;99.90
70726;DHT22;58304;53.104;6.022;2023-04-24T09:52:22;10.80;99.90
70726;DHT22;58304;53.104;6.022;2023-04-24T09:54:53;10.60;99.90
70726;DHT22;58304;53.104;6.022;2023-04-24T09:57:19;10.50;99.90
70726;DHT22;58304;53.104;6.022;2023-04-24T09:59:46;10.60;99.90
70726;DHT22;58304;53.104;6.022;2023-04-24T10:02:19;10.60;99.90
70726;DHT22;58304;53.104;6.022;2023-04-24T10:04:55;10.50;99.90
70726;DHT22;58304;53.104;6.022;2023-04-24T10:07:28;10.50;99.90
70726;DHT22;58304;53.104;6.022;2023-04-24T10:09:54;10.50;99.90
70726;DHT22;58304;53.104;6.022;2023-04-24T10:12:21;10.40;99.90
70726;DHT22;58304;53.104;6.022;2023-04-24T10:14:46;10.50;99.90
70726;DHT22;58304;53.104;6.022;2023-04-24T10:17:12;10.50;99.90
70726;DHT22;58304;53.104;6.022;2023-04-24T10:19:40;10.50;99.90
70726;DHT22;58304;53.104;6.022;2023-04-24T10:22:08;10.40;99.90
70726;DHT22;58304;53.104;6.022;2023-04-24T10:24:33;10.50;99.90
70726;DHT22;58304;53.104;6.022;2023-04-24T10:27:02;10.40;99.90
70726;DHT22;58304;53.104;6.022;2023-04-24T10:29:31;10.50;99.90
70726;DHT22;58304;53.104;6.022;2023-04-24T10:31:57;10.60;99.90
70726;DHT22;58304;53.104;6.022;2023-04-24T10:34:23;10.50;99.90
70726;DHT22;58304;53.104;6.022;2023-04-24T10:36:51;10.50;99.90
70726;DHT22;58304;53.104;6.022;2023-04-24T10:39:18;10.50;99.90
70726;DHT22;58304;53.104;6.022;2023-04-24T10:41:44;10.60;99.90
70726;DHT22;58304;53.104;6.022;2023-04-24T10:44:15;10.70;99.90
70726;DHT22;58304;53.104;6.022;2023-04-24T10:46:46;10.90;99.90
70726;DHT22;58304;53.104;6.022;2023-04-24T10:49:13;11.10;99.90
70726;DHT22;58304;53.104;6.022;2023-04-24T10:51:53;11.20;99.90
70726;DHT22;58304;53.104;6.022;2023-04-24T10:54:27;11.50;99.90
70726;DHT22;58304;53.104;6.022;2023-04-24T10:56:55;11.70;99.90
70726;DHT22;58304;53.104;6.022;2023-04-24T10:59:39;11.80;99.90
70726;DHT22;58304;53.104;6.022;2023-04-24T11:02:07;11.80;99.90
70726;DHT22;58304;53.104;6.022;2023-04-24T11:04:33;11.70;99.90
70726;DHT22;58304;53.104;6.022;2023-04-24T11:07:02;11.60;99.90
70726;DHT22;58304;53.104;6.022;2023-04-24T11:09:28;11.50;99.90
70726;DHT22;58304;53.104;6.022;2023-04-24T11:12:09;11.30;99.90
70726;DHT22;58304;53.104;6.022;2023-04-24T11:15:02;11.20;99.90
70726;DHT22;58304;53.104;6.022;2023-04-24T11:17:36;11.10;99.90
70726;DHT22;58304;53.104;6.022;2023-04-24T11:20:07;10.60;99.90
70726;DHT22;58304;53.104;6.022;2023-04-24T11:22:35;10.20;99.90
70726;DHT22;58304;53.104;6.022;2023-04-24T11:25:02;10.10;99.90
70726;DHT22;58304;53.104;6.022;2023-04-24T11:27:42;10.00;99.90
70726;DHT22;58304;53.104;6.022;2023-04-24T11:30:09;10.00;99.90
70726;DHT22;58304;53.104;6.022;2023-04-24T11:32:40;9.90;99.90
70726;DHT22;58304;53.104;6.022;2023-04-24T11:35:27;10.00;99.90
70726;DHT22;58304;53.104;6.022;2023-04-24T11:37:55;10.10;99.90
70726;DHT22;58304;53.104;6.022;2023-04-24T11:40:22;10.20;99.90
70726;DHT22;58304;53.104;6.022;2023-04-24T11:42:52;10.10;99.90
70726;DHT22;58304;53.104;6.022;2023-04-24T11:45:25;10.10;99.90
70726;DHT22;58304;53.104;6.022;2023-04-24T11:47:52;10.20;99.90
70726;DHT22;58304;53.104;6.022;2023-04-24T11:50:18;10.10;99.90
70726;DHT22;58304;53.104;6.022;2023-04-24T11:52:46;10.20;99.90
70726;DHT22;58304;53.104;6.022;2023-04-24T11:57:45;10.40;99.90
70726;DHT22;58304;53.104;6.022;2023-04-24T12:00:23;10.50;99.90
70726;DHT22;58304;53.104;6.022;2023-04-24T12:02:49;10.60;99.90
70726;DHT22;58304;53.104;6.022;2023-04-24T12:05:24;10.70;99.90
70726;DHT22;58304;53.104;6.022;2023-04-24T12:07:49;10.70;99.90
70726;DHT22;58304;53.104;6.022;2023-04-24T12:10:22;10.70;99.90
70726;DHT22;58304;53.104;6.022;2023-04-24T12:12:49;10.60;99.90
70726;DHT22;58304;53.104;6.022;2023-04-24T12:15:17;10.50;99.90
70726;DHT22;58304;53.104;6.022;2023-04-24T12:17:44;10.40;99.90
70726;DHT22;58304;53.104;6.022;2023-04-24T12:20:11;10.50;99.90
70726;DHT22;58304;53.104;6.022;2023-04-24T12:22:56;10.60;99.90
70726;DHT22;58304;53.104;6.022;2023-04-24T12:25:33;11.00;99.90
70726;DHT22;58304;53.104;6.022;2023-04-24T12:30:28;11.50;99.90
70726;DHT22;58304;53.104;6.022;2023-04-24T12:32:56;11.50;99.90
70726;DHT22;58304;53.104;6.022;2023-04-24T12:35:24;11.50;99.90
70726;DHT22;58304;53.104;6.022;2023-04-24T12:37:50;11.40;99.90
70726;DHT22;58304;53.104;6.022;2023-04-24T12:40:17;11.20;99.90
70726;DHT22;58304;53.104;6.022;2023-04-24T12:42:45;11.30;99.90
70726;DHT22;58304;53.104;6.022;2023-04-24T12:45:12;11.30;99.90
70726;DHT22;58304;53.104;6.022;2023-04-24T12:47:39;11.20;99.90
70726;DHT22;58304;53.104;6.022;2023-04-24T12:50:12;11.10;99.90
70726;DHT22;58304;53.104;6.022;2023-04-24T12:52:38;11.00;99.90
70726;DHT22;58304;53.104;6.022;2023-04-24T12:55:05;11.20;99.90
70726;DHT22;58304;53.104;6.022;2023-04-24T12:57:35;11.30;99.90
70726;DHT22;58304;53.104;6.022;2023-04-24T13:00:01;11.20;99.90
70726;DHT22;58304;53.104;6.022;2023-04-24T13:02:30;11.20;99.90
70726;DHT22;58304;53.104;6.022;2023-04-24T13:04:57;11.30;99.90
70726;DHT22;58304;53.104;6.022;2023-04-24T13:07:23;11.40;99.90
70726;DHT22;58304;53.104;6.022;2023-04-24T13:09:49;11.60;99.90
70726;DHT22;58304;53.104;6.022;2023-04-24T13:12:16;11.60;99.90
70726;DHT22;58304;53.104;6.022;2023-04-24T13:14:41;11.60;99.90
70726;DHT22;58304;53.104;6.022;2023-04-24T13:17:07;11.40;99.90
70726;DHT22;58304;53.104;6.022;2023-04-24T13:19:37;11.30;99.90
70726;DHT22;58304;53.104;6.022;2023-04-24T13:22:03;11.00;99.90
70726;DHT22;58304;53.104;6.022;2023-04-24T13:24:29;10.80;99.90
70726;DHT22;58304;53.104;6.022;2023-04-24T13:26:56;10.90;99.90
70726;DHT22;58304;53.104;6.022;2023-04-24T13:29:22;11.00;99.90
70726;DHT22;58304;53.104;6.022;2023-04-24T13:31:50;10.90;99.90
70726;DHT22;58304;53.104;6.022;2023-04-24T13:34:17;10.60;99.90
70726;DHT22;58304;53.104;6.022;2023-04-24T13:36:43;10.40;99.90
70726;DHT22;58304;53.104;6.022;2023-04-24T13:39:09;10.30;99.90
70726;DHT22;58304;53.104;6.022;2023-04-24T13:41:35;10.40;99.90
70726;DHT22;58304;53.104;6.022;2023-04-24T13:44:05;10.40;99.90
70726;DHT22;58304;53.104;6.022;2023-04-24T13:46:31;10.50;99.90
70726;DHT22;58304;53.104;6.022;2023-04-24T13:48:57;10.70;99.90
70726;DHT22;58304;53.104;6.022;2023-04-24T13:51:25;10.90;99.90
70726;DHT22;58304;53.104;6.022;2023-04-24T13:53:52;10.40;99.90
70726;DHT22;58304;53.104;6.022;2023-04-24T13:56:18;10.20;99.90
70726;DHT22;58304;53.104;6.022;2023-04-24T13:58:43;10.10;99.90
70726;DHT22;58304;53.104;6.022;2023-04-24T14:01:09;10.10;99.90
70726;DHT22;58304;53.104;6.022;2023-04-24T14:03:36;10.10;99.90
70726;DHT22;58304;53.104;6.022;2023-04-24T14:06:02;10.00;99.90
70726;DHT22;58304;53.104;6.022;2023-04-24T14:08:28;10.10;99.90
70726;DHT22;58304;53.104;6.022;2023-04-24T14:10:53;10.00;99.90
70726;DHT22;58304;53.104;6.022;2023-04-24T14:13:19;10.10;99.90
70726;DHT22;58304;53.104;6.022;2023-04-24T14:15:45;10.00;99.90
70726;DHT22;58304;53.104;6.022;2023-04-24T14:18:11;9.90;99.90
70726;DHT22;58304;53.104;6.022;2023-04-24T14:20:36;9.70;99.90
70726;DHT22;58304;53.104;6.022;2023-04-24T14:23:03;9.80;99.90
70726;DHT22;58304;53.104;6.022;2023-04-24T14:25:29;9.90;99.90
70726;DHT22;58304;53.104;6.022;2023-04-24T14:27:55;9.90;99.90
70726;DHT22;58304;53.104;6.022;2023-04-24T14:30:21;10.20;99.90
70726;DHT22;58304;53.104;6.022;2023-04-24T14:32:48;10.20;99.90
70726;DHT22;58304;53.104;6.022;2023-04-24T14:35:13;10.20;99.90
70726;DHT22;58304;53.104;6.022;2023-04-24T14:37:40;10.20;99.90
70726;DHT22;58304;53.104;6.022;2023-04-24T14:40:09;10.30;99.90
70726;DHT22;58304;53.104;6.022;2023-04-24T14:42:35;10.10;99.90
70726;DHT22;58304;53.104;6.022;2023-04-24T14:45:01;10.20;99.90
70726;DHT22;58304;53.104;6.022;2023-04-24T14:47:27;10.10;99.90
70726;DHT22;58304;53.104;6.022;2023-04-24T14:49:52;10.10;99.90
70726;DHT22;58304;53.104;6.022;2023-04-24T14:52:18;10.10;99.90
70726;DHT22;58304;53.104;6.022;2023-04-24T14:54:44;10.00;99.90
70726;DHT22;58304;53.104;6.022;2023-04-24T14:57:09;10.10;99.90
70726;DHT22;58304;53.104;6.022;2023-04-24T14:59:35;10.00;99.90
70726;DHT22;58304;53.104;6.022;2023-04-24T15:02:01;10.00;99.90
70726;DHT22;58304;53.104;6.022;2023-04-24T15:04:27;9.90;99.90
70726;DHT22;58304;53.104;6.022;2023-04-24T15:06:57;9.90;99.90
70726;DHT22;58304;53.104;6.022;2023-04-24T15:09:24;10.10;99.90
70726;DHT22;58304;53.104;6.022;2023-04-24T15:11:52;9.90;99.90
70726;DHT22;58304;53.104;6.022;2023-04-24T15:14:17;10.00;99.90
70726;DHT22;58304;53.104;6.022;2023-04-24T15:16:44;10.00;99.90
70726;DHT22;58304;53.104;6.022;2023-04-24T15:19:10;9.80;99.90
70726;DHT22;58304;53.104;6.022;2023-04-24T15:21:36;9.90;99.90
70726;DHT22;58304;53.104;6.022;2023-04-24T15:24:02;9.90;99.90
70726;DHT22;58304;53.104;6.022;2023-04-24T15:26:27;9.90;99.90
70726;DHT22;58304;53.104;6.022;2023-04-24T15:28:53;9.90;99.90
70726;DHT22;58304;53.104;6.022;2023-04-24T15:31:21;9.80;99.90
70726;DHT22;58304;53.104;6.022;2023-04-24T15:33:48;10.00;99.90
70726;DHT22;58304;53.104;6.022;2023-04-24T15:36:16;9.70;99.90
70726;DHT22;58304;53.104;6.022;2023-04-24T15:38:43;9.50;99.90
70726;DHT22;58304;53.104;6.022;2023-04-24T15:41:09;9.60;99.90
70726;DHT22;58304;53.104;6.022;2023-04-24T15:43:34;9.70;99.90